createdAt,value
2018-04-29T00:01:38.792Z,12.87
2018-04-29T00:04:07.081Z,11.40
2018-04-29T00:06:35.277Z,11.03
2018-04-29T00:09:03.519Z,11.43
2018-04-29T00:11:31.829Z,11.73
2018-04-29T00:14:00.832Z,11.07
2018-04-29T00:16:29.027Z,10.93
2018-04-29T00:18:58.015Z,12.20
2018-04-29T00:21:26.981Z,10.37
2018-04-29T00:23:55.204Z,11.40
2018-04-29T00:26:23.438Z,11.30
2018-04-29T00:28:51.659Z,13.00
2018-04-29T00:31:19.939Z,10.90
2018-04-29T00:33:48.091Z,11.37
2018-04-29T00:36:17.084Z,11.53
2018-04-29T00:38:46.102Z,11.70
2018-04-29T00:41:15.067Z,12.20
2018-04-29T00:43:44.034Z,11.13
2018-04-29T00:46:12.249Z,11.93
2018-04-29T00:48:40.511Z,11.67
2018-04-29T00:51:09.517Z,11.87
2018-04-29T00:53:37.719Z,12.10
2018-04-29T00:56:05.955Z,11.90
2018-04-29T00:58:34.925Z,12.53
2018-04-29T01:01:03.139Z,12.77
2018-04-29T01:03:31.375Z,12.17
2018-04-29T01:05:59.619Z,12.70
2018-04-29T01:08:27.793Z,11.70
2018-04-29T01:10:56.064Z,11.37
2018-04-29T01:13:24.263Z,11.97
2018-04-29T01:15:52.483Z,13.33
2018-04-29T01:18:20.722Z,12.00
2018-04-29T01:20:49.039Z,11.40
2018-04-29T01:23:17.239Z,11.97
2018-04-29T01:25:45.455Z,11.63
2018-04-29T01:28:13.659Z,11.83
2018-04-29T01:30:41.860Z,11.30
2018-04-29T01:33:10.174Z,10.67
2018-04-29T01:35:38.379Z,12.23
2018-04-29T01:38:07.383Z,11.60
2018-04-29T01:40:35.599Z,11.10
2018-04-29T01:43:03.842Z,10.67
2018-04-29T01:45:32.060Z,10.90
2018-04-29T01:48:00.564Z,11.67
2018-04-29T01:50:30.463Z,11.03
2018-04-29T01:52:58.661Z,10.97
2018-04-29T01:55:27.703Z,11.67
2018-04-29T01:57:55.907Z,11.93
2018-04-29T02:00:24.115Z,11.20
2018-04-29T02:02:53.104Z,11.13
2018-04-29T02:05:23.363Z,11.63
2018-04-29T02:07:52.338Z,11.00
2018-04-29T02:10:20.551Z,10.83
2018-04-29T02:12:48.775Z,11.50
2018-04-29T02:15:16.976Z,11.87
2018-04-29T02:17:45.209Z,11.20
2018-04-29T02:20:14.163Z,10.70
2018-04-29T02:22:42.406Z,11.13
2018-04-29T02:25:10.611Z,10.73
2018-04-29T02:27:38.807Z,11.30
2018-04-29T02:30:07.015Z,13.23
2018-04-29T02:32:35.255Z,11.63
2018-04-29T02:35:03.447Z,10.83
2018-04-29T02:37:31.652Z,10.93
2018-04-29T02:39:59.923Z,10.80
2018-04-29T02:42:28.136Z,10.40
2018-04-29T02:44:56.318Z,11.30
2018-04-29T02:47:24.536Z,10.07
2018-04-29T02:49:53.491Z,10.83
2018-04-29T02:52:21.683Z,10.03
2018-04-29T02:54:50.135Z,10.73
2018-04-29T02:57:18.383Z,10.17
2018-04-29T02:59:46.576Z,10.20
2018-04-29T03:02:16.036Z,10.70
2018-04-29T03:04:45.080Z,11.23
2018-04-29T03:07:13.307Z,10.10
2018-04-29T03:09:42.307Z,11.53
2018-04-29T03:12:11.271Z,10.47
2018-04-29T03:14:39.479Z,9.67
2018-04-29T03:17:07.756Z,10.27
2018-04-29T03:19:36.077Z,10.57
2018-04-29T03:22:04.291Z,10.93
2018-04-29T03:24:33.331Z,12.47
2018-04-29T03:27:01.524Z,10.47
2018-04-29T03:29:30.491Z,10.40
2018-04-29T03:31:58.776Z,10.40
2018-04-29T03:34:27.002Z,11.30
2018-04-29T03:36:56.012Z,10.20
2018-04-29T03:39:24.303Z,11.20
2018-04-29T03:41:53.272Z,10.23
2018-04-29T03:44:22.254Z,10.90
2018-04-29T03:46:50.488Z,10.33
2018-04-29T03:49:18.975Z,10.67
2018-04-29T03:51:47.171Z,10.83
2018-04-29T03:54:15.411Z,10.90
2018-04-29T03:56:43.605Z,10.73
2018-04-29T03:59:23.730Z,10.53
2018-04-29T04:02:03.779Z,11.60
2018-04-29T04:04:34.587Z,12.13
2018-04-29T04:07:03.599Z,11.47
2018-04-29T04:09:31.794Z,11.13
2018-04-29T04:12:00.071Z,15.13
2018-04-29T04:14:28.275Z,10.97
2018-04-29T04:16:56.480Z,11.23
2018-04-29T04:19:25.463Z,11.37
2018-04-29T04:21:54.514Z,11.20
2018-04-29T04:24:22.658Z,10.90
2018-04-29T04:26:53.588Z,12.03
2018-04-29T04:29:22.562Z,10.33
2018-04-29T04:31:50.764Z,11.63
2018-04-29T04:34:18.995Z,11.60
2018-04-29T04:36:47.195Z,10.83
2018-04-29T04:39:16.179Z,10.70
2018-04-29T04:41:44.453Z,10.30
2018-04-29T04:44:12.647Z,11.50
2018-04-29T04:46:41.668Z,11.87
2018-04-29T04:49:11.339Z,11.20
2018-04-29T04:51:41.611Z,11.20
2018-04-29T04:54:09.814Z,11.20
2018-04-29T04:56:38.039Z,11.07
2018-04-29T04:59:06.239Z,10.90
2018-04-29T05:01:34.472Z,13.33
2018-04-29T05:04:03.548Z,11.47
2018-04-29T05:06:31.756Z,11.43
2018-04-29T05:08:59.951Z,12.00
2018-04-29T05:11:29.507Z,11.03
2018-04-29T05:13:58.503Z,11.97
2018-04-29T05:16:27.488Z,12.23
2018-04-29T05:18:55.766Z,11.30
2018-04-29T05:21:23.966Z,11.30
2018-04-29T05:23:52.216Z,10.57
2018-04-29T05:26:20.423Z,11.77
2018-04-29T05:28:48.684Z,11.37
2018-04-29T05:31:16.863Z,11.40
2018-04-29T05:33:45.168Z,11.20
2018-04-29T05:36:13.415Z,11.53
2018-04-29T05:38:41.619Z,10.30
2018-04-29T05:41:09.932Z,11.17
2018-04-29T05:43:38.067Z,10.60
2018-04-29T05:46:06.401Z,11.60
2018-04-29T05:48:34.607Z,11.10
2018-04-29T05:51:02.798Z,11.03
2018-04-29T05:53:31.052Z,11.10
2018-04-29T05:55:59.498Z,11.07
2018-04-29T05:58:27.703Z,10.30
2018-04-29T06:00:55.895Z,10.33
2018-04-29T06:03:24.147Z,10.93
2018-04-29T06:05:53.195Z,9.83
2018-04-29T06:08:21.387Z,11.90
2018-04-29T06:10:50.233Z,8.80
2018-04-29T06:13:19.435Z,9.17
2018-04-29T06:15:47.646Z,8.40
2018-04-29T06:18:16.044Z,8.20
2018-04-29T06:20:44.232Z,9.17
2018-04-29T06:23:13.204Z,10.10
2018-04-29T06:25:41.448Z,9.03
2018-04-29T06:28:09.672Z,8.37
2018-04-29T06:30:38.663Z,7.07
2018-04-29T06:33:07.642Z,7.50
2018-04-29T06:35:35.923Z,6.40
2018-04-29T06:38:04.111Z,7.50
2018-04-29T06:40:33.103Z,7.57
2018-04-29T06:43:02.080Z,6.40
2018-04-29T06:45:30.267Z,5.60
2018-04-29T06:47:59.232Z,5.10
2018-04-29T06:50:27.455Z,6.20
2018-04-29T06:52:55.639Z,6.20
2018-04-29T06:55:23.843Z,5.67
2018-04-29T06:57:52.187Z,5.30
2018-04-29T07:00:20.408Z,5.70
2018-04-29T07:02:48.596Z,5.33
2018-04-29T07:05:16.815Z,5.60
2018-04-29T07:07:45.015Z,6.77
2018-04-29T07:10:13.238Z,4.43
2018-04-29T07:12:42.384Z,4.40
2018-04-29T07:15:10.576Z,3.97
2018-04-29T07:17:38.771Z,5.13
2018-04-29T07:20:07.044Z,4.33
2018-04-29T07:22:35.247Z,4.80
2018-04-29T07:25:03.435Z,3.90
2018-04-29T07:27:31.659Z,3.93
2018-04-29T07:29:59.855Z,3.43
2018-04-29T07:32:28.819Z,3.90
2018-04-29T07:34:58.545Z,3.00
2018-04-29T07:37:26.745Z,2.87
2018-04-29T07:39:55.891Z,4.00
2018-04-29T07:42:24.043Z,2.73
2018-04-29T07:44:52.231Z,3.53
2018-04-29T07:47:21.188Z,5.23
2018-04-29T07:49:51.397Z,2.90
2018-04-29T07:52:20.460Z,4.70
2018-04-29T07:54:48.539Z,4.10
2018-04-29T07:57:16.750Z,3.07
2018-04-29T07:59:44.934Z,4.07
2018-04-29T08:02:13.133Z,4.13
2018-04-29T08:04:41.452Z,4.27
2018-04-29T08:07:09.859Z,4.80
2018-04-29T08:09:38.811Z,2.60
2018-04-29T08:12:07.016Z,2.27
2018-04-29T08:14:36.003Z,3.90
2018-04-29T08:17:04.978Z,5.63
2018-04-29T08:19:33.201Z,2.43
2018-04-29T08:22:01.408Z,4.47
2018-04-29T08:24:30.383Z,4.77
2018-04-29T08:26:58.672Z,4.60
2018-04-29T08:29:26.892Z,4.27
2018-04-29T08:31:55.883Z,3.07
2018-04-29T08:34:24.951Z,6.80
2018-04-29T08:36:53.138Z,4.03
2018-04-29T08:39:21.331Z,3.50
2018-04-29T08:41:50.394Z,5.00
2018-04-29T08:44:18.498Z,6.20
2018-04-29T08:46:47.472Z,5.90
2018-04-29T08:49:15.717Z,4.30
2018-04-29T08:51:43.924Z,4.10
2018-04-29T08:54:12.123Z,5.00
2018-04-29T08:56:41.107Z,6.13
2018-04-29T08:59:10.068Z,6.00
2018-04-29T09:04:12.959Z,7.40
2018-04-29T09:06:41.163Z,7.47
2018-04-29T09:09:09.355Z,7.67
2018-04-29T09:11:38.432Z,8.37
2018-04-29T09:14:06.623Z,6.47
2018-04-29T09:16:36.183Z,3.80
2018-04-29T09:19:04.461Z,5.93
2018-04-29T09:21:32.660Z,5.53
2018-04-29T09:24:00.847Z,3.40
2018-04-29T09:26:29.875Z,8.00
2018-04-29T09:28:58.203Z,6.33
2018-04-29T09:31:26.419Z,5.80
2018-04-29T09:33:54.675Z,6.90
2018-04-29T09:36:22.847Z,7.20
2018-04-29T09:38:51.823Z,8.70
2018-04-29T09:41:20.062Z,5.47
2018-04-29T09:43:48.252Z,5.73
2018-04-29T09:46:16.439Z,5.60
2018-04-29T09:48:44.748Z,6.73
2018-04-29T09:51:12.903Z,10.27
2018-04-29T09:53:41.091Z,7.07
2018-04-29T09:56:10.164Z,6.00
2018-04-29T09:58:38.361Z,10.80
2018-04-29T10:01:12.972Z,7.03
2018-04-29T10:03:41.140Z,8.07
2018-04-29T10:06:09.346Z,7.23
2018-04-29T10:08:37.574Z,5.60
2018-04-29T10:11:05.772Z,9.27
2018-04-29T10:13:34.767Z,8.27
2018-04-29T10:16:03.147Z,6.30
2018-04-29T10:18:34.663Z,5.97
2018-04-29T10:21:02.851Z,10.70
2018-04-29T10:23:31.111Z,7.07
2018-04-29T10:25:59.319Z,7.77
2018-04-29T10:28:27.503Z,8.53
2018-04-29T10:30:56.555Z,5.63
2018-04-29T10:33:24.771Z,7.00
2018-04-29T10:35:53.735Z,6.43
2018-04-29T10:38:23.264Z,7.27
2018-04-29T10:40:52.220Z,8.63
2018-04-29T10:43:20.431Z,7.33
2018-04-29T10:45:49.475Z,7.50
2018-04-29T10:48:17.701Z,8.27
2018-04-29T10:50:46.650Z,10.87
2018-04-29T10:53:14.862Z,5.33
2018-04-29T10:55:43.052Z,7.23
2018-04-29T10:58:12.007Z,5.50
2018-04-29T11:00:41.547Z,5.63
2018-04-29T11:03:10.515Z,6.87
2018-04-29T11:05:38.717Z,10.10
2018-04-29T11:08:07.763Z,8.70
2018-04-29T11:10:35.968Z,5.90
2018-04-29T11:13:04.179Z,10.53
2018-04-29T11:15:32.400Z,7.43
2018-04-29T11:18:00.646Z,7.43
2018-04-29T11:20:29.279Z,5.70
2018-04-29T11:22:58.796Z,8.40
2018-04-29T11:25:27.757Z,8.77
2018-04-29T11:27:56.052Z,11.43
2018-04-29T11:30:25.079Z,8.43
2018-04-29T11:32:53.279Z,12.47
2018-04-29T11:35:21.564Z,8.90
2018-04-29T11:37:49.794Z,8.60
2018-04-29T11:40:18.780Z,8.07
2018-04-29T11:42:46.976Z,7.73
2018-04-29T11:45:16.579Z,9.50
2018-04-29T11:47:44.799Z,8.03
2018-04-29T11:50:13.074Z,7.10
2018-04-29T11:52:41.375Z,8.23
2018-04-29T11:55:09.591Z,6.07
2018-04-29T11:57:37.794Z,8.70
2018-04-29T12:00:06.216Z,6.83
2018-04-29T12:02:35.219Z,5.83
2018-04-29T12:05:03.395Z,7.63
2018-04-29T12:07:32.747Z,7.73
2018-04-29T12:10:00.946Z,8.13
2018-04-29T12:12:29.128Z,7.23
2018-04-29T12:14:57.448Z,5.17
2018-04-29T12:17:26.375Z,8.43
2018-04-29T12:19:54.571Z,7.03
2018-04-29T12:22:23.420Z,5.03
2018-04-29T12:24:51.638Z,6.20
2018-04-29T12:27:19.851Z,4.73
2018-04-29T12:29:48.137Z,4.80
2018-04-29T12:32:16.326Z,5.87
2018-04-29T12:34:44.523Z,7.93
2018-04-29T12:37:12.749Z,5.43
2018-04-29T12:39:40.946Z,6.37
2018-04-29T12:42:09.130Z,5.00
2018-04-29T12:44:37.375Z,6.50
2018-04-29T12:47:05.557Z,6.67
2018-04-29T12:49:33.751Z,10.23
2018-04-29T12:52:02.066Z,7.90
2018-04-29T12:54:30.239Z,6.37
2018-04-29T12:56:59.198Z,9.90
2018-04-29T12:59:27.392Z,4.63
2018-04-29T13:01:55.588Z,7.57
2018-04-29T13:04:24.563Z,7.13
2018-04-29T13:06:52.964Z,6.00
2018-04-29T13:09:21.960Z,4.60
2018-04-29T13:11:51.804Z,7.57
2018-04-29T13:14:20.135Z,6.03
2018-04-29T13:16:48.359Z,6.10
2018-04-29T13:19:16.553Z,6.30
2018-04-29T13:21:44.799Z,5.73
2018-04-29T13:24:13.003Z,11.23
2018-04-29T13:26:41.203Z,6.43
2018-04-29T13:29:09.466Z,4.43
2018-04-29T13:31:37.694Z,4.57
2018-04-29T13:34:05.885Z,7.37
2018-04-29T13:36:34.330Z,6.10
2018-04-29T13:39:03.296Z,6.93
2018-04-29T13:41:31.567Z,5.40
2018-04-29T13:44:00.683Z,10.03
2018-04-29T13:46:29.686Z,8.80
2018-04-29T13:48:58.639Z,5.63
2018-04-29T13:51:26.869Z,5.07
2018-04-29T13:53:55.062Z,5.10
2018-04-29T13:56:23.272Z,7.50
2018-04-29T13:58:51.640Z,7.87
2018-04-29T14:01:19.798Z,5.13
2018-04-29T14:03:48.007Z,6.33
2018-04-29T14:06:16.246Z,6.43
2018-04-29T14:08:44.444Z,7.60
2018-04-29T14:11:12.684Z,5.87
2018-04-29T14:13:40.892Z,8.10
2018-04-29T14:16:09.076Z,4.87
2018-04-29T14:18:37.292Z,3.73
2018-04-29T14:21:05.588Z,5.67
2018-04-29T14:23:33.775Z,5.13
2018-04-29T14:26:02.904Z,5.93
2018-04-29T14:28:31.127Z,4.53
2018-04-29T14:30:59.325Z,7.20
2018-04-29T14:33:27.518Z,4.73
2018-04-29T14:35:55.736Z,4.90
2018-04-29T14:38:24.689Z,7.17
2018-04-29T14:40:52.887Z,8.37
2018-04-29T14:43:21.949Z,8.30
2018-04-29T14:45:50.179Z,4.27
2018-04-29T14:48:18.470Z,7.27
2018-04-29T14:50:46.741Z,6.97
2018-04-29T14:53:14.936Z,11.57
2018-04-29T14:55:43.128Z,5.40
2018-04-29T14:58:11.395Z,5.80
2018-04-29T15:00:40.404Z,6.37
2018-04-29T15:03:08.616Z,7.90
2018-04-29T15:05:37.772Z,8.80
2018-04-29T15:08:06.928Z,7.97
2018-04-29T15:10:35.343Z,6.80
2018-04-29T15:13:04.331Z,12.73
2018-04-29T15:15:32.943Z,9.23
2018-04-29T15:18:01.139Z,6.03
2018-04-29T15:20:30.162Z,8.97
2018-04-29T15:22:58.391Z,8.50
2018-04-29T15:25:26.614Z,9.03
2018-04-29T15:27:54.875Z,9.43
2018-04-29T15:30:23.078Z,6.50
2018-04-29T15:32:51.263Z,5.57
2018-04-29T15:35:19.702Z,11.10
2018-04-29T15:37:47.895Z,8.77
2018-04-29T15:40:16.118Z,7.87
2018-04-29T15:42:44.336Z,8.07
2018-04-29T15:45:12.531Z,5.43
2018-04-29T15:47:40.730Z,7.87
2018-04-29T15:50:10.279Z,6.43
2018-04-29T15:52:38.467Z,7.07
2018-04-29T15:55:06.742Z,9.27
2018-04-29T15:57:35.027Z,7.50
2018-04-29T16:00:03.267Z,9.97
2018-04-29T16:02:32.323Z,8.47
2018-04-29T16:05:00.551Z,9.53
2018-04-29T16:07:28.743Z,7.43
2018-04-29T16:09:56.943Z,4.87
2018-04-29T16:12:25.207Z,6.70
2018-04-29T16:14:53.399Z,8.13
2018-04-29T16:17:21.591Z,8.77
2018-04-29T16:19:49.899Z,6.43
2018-04-29T16:22:20.931Z,9.73
2018-04-29T16:24:49.891Z,7.60
2018-04-29T16:27:18.242Z,8.27
2018-04-29T16:29:46.427Z,9.60
2018-04-29T16:32:14.671Z,6.57
2018-04-29T16:34:42.899Z,7.90
2018-04-29T16:37:11.158Z,6.90
2018-04-29T16:39:39.471Z,5.20
2018-04-29T16:42:08.491Z,8.93
2018-04-29T16:44:37.463Z,7.30
2018-04-29T16:47:06.450Z,5.70
2018-04-29T16:49:35.454Z,8.03
2018-04-29T16:52:04.523Z,7.90
2018-04-29T16:54:32.727Z,6.57
2018-04-29T16:57:01.773Z,9.03
2018-04-29T16:59:29.959Z,7.83
2018-04-29T17:01:58.155Z,11.97
2018-04-29T17:04:27.167Z,7.13
2018-04-29T17:06:56.686Z,6.00
2018-04-29T17:09:25.169Z,6.97
2018-04-29T17:11:53.459Z,6.33
2018-04-29T17:14:21.666Z,6.03
2018-04-29T17:16:49.989Z,6.53
2018-04-29T17:19:18.527Z,7.17
2018-04-29T17:21:46.714Z,6.83
2018-04-29T17:24:14.942Z,6.50
2018-04-29T17:26:43.142Z,8.63
2018-04-29T17:29:11.422Z,9.47
2018-04-29T17:31:40.363Z,7.50
2018-04-29T17:34:08.582Z,10.93
2018-04-29T17:36:36.784Z,8.00
2018-04-29T17:39:05.028Z,8.37
2018-04-29T17:41:33.319Z,8.87
2018-04-29T17:44:01.536Z,6.97
2018-04-29T17:46:30.483Z,8.00
2018-04-29T17:48:58.731Z,7.73
2018-04-29T17:51:26.923Z,7.57
2018-04-29T17:53:55.127Z,7.80
2018-04-29T17:56:23.340Z,9.87
2018-04-29T17:58:51.527Z,8.90
2018-04-29T18:01:19.899Z,6.57
2018-04-29T18:03:49.475Z,8.50
2018-04-29T18:06:18.440Z,6.90
2018-04-29T18:08:46.642Z,5.27
2018-04-29T18:11:15.641Z,7.63
2018-04-29T18:13:44.692Z,8.63
2018-04-29T18:16:13.300Z,10.20
2018-04-29T18:18:41.555Z,7.40
2018-04-29T18:21:09.762Z,9.00
2018-04-29T18:23:38.771Z,11.30
2018-04-29T18:26:07.134Z,9.57
2018-04-29T18:28:36.091Z,6.80
2018-04-29T18:31:04.359Z,10.20
2018-04-29T18:33:32.599Z,10.67
2018-04-29T18:36:00.815Z,8.57
2018-04-29T18:38:29.217Z,8.83
2018-04-29T18:40:57.611Z,6.10
2018-04-29T18:43:26.919Z,9.40
2018-04-29T18:45:56.052Z,6.93
2018-04-29T18:48:24.933Z,9.10
2018-04-29T18:50:53.192Z,8.87
2018-04-29T18:53:21.331Z,10.63
2018-04-29T18:55:49.611Z,8.67
2018-04-29T18:58:17.807Z,8.70
2018-04-29T19:00:46.779Z,7.27
2018-04-29T19:03:19.953Z,11.27
2018-04-29T19:05:48.158Z,9.53
2018-04-29T19:08:17.147Z,8.57
2018-04-29T19:10:45.791Z,8.77
2018-04-29T19:13:15.121Z,11.37
2018-04-29T19:15:44.220Z,7.90
2018-04-29T19:18:13.846Z,10.97
2018-04-29T19:20:42.984Z,10.57
2018-04-29T19:23:11.223Z,6.23
2018-04-29T19:25:40.231Z,6.77
2018-04-29T19:28:08.952Z,10.50
2018-04-29T19:30:37.931Z,8.97
2018-04-29T19:33:06.268Z,8.90
2018-04-29T19:35:35.232Z,6.80
2018-04-29T19:38:03.514Z,10.60
2018-04-29T19:40:31.830Z,7.93
2018-04-29T19:43:00.832Z,8.40
2018-04-29T19:45:29.018Z,7.20
2018-04-29T19:47:57.293Z,8.50
2018-04-29T19:50:25.566Z,9.50
2018-04-29T19:52:53.801Z,10.30
2018-04-29T19:55:22.107Z,13.23
2018-04-29T19:57:51.153Z,8.93
2018-04-29T20:00:19.342Z,8.53
2018-04-29T20:02:47.733Z,9.23
2018-04-29T20:05:16.696Z,12.00
2018-04-29T20:07:45.019Z,9.33
2018-04-29T20:10:13.568Z,10.83
2018-04-29T20:12:41.763Z,12.83
2018-04-29T20:15:10.023Z,11.90
2018-04-29T20:17:38.446Z,11.67
2018-04-29T20:20:07.658Z,15.17
2018-04-29T20:22:36.656Z,8.10
2018-04-29T20:25:04.899Z,9.47
2018-04-29T20:27:33.915Z,8.53
2018-04-29T20:30:02.380Z,12.40
2018-04-29T20:32:54.174Z,10.90
2018-04-29T20:35:22.379Z,11.07
2018-04-29T20:37:51.505Z,10.97
2018-04-29T20:40:20.565Z,8.93
2018-04-29T20:42:49.528Z,10.00
2018-04-29T20:45:17.731Z,13.57
2018-04-29T20:47:46.758Z,9.77
2018-04-29T20:50:15.688Z,12.73
2018-04-29T20:52:43.895Z,12.43
2018-04-29T20:55:12.989Z,10.33
2018-04-29T20:57:42.047Z,11.50
2018-04-29T21:00:10.370Z,10.87
2018-04-29T21:02:39.367Z,10.57
2018-04-29T21:05:07.597Z,9.77
2018-04-29T21:07:36.058Z,11.80
2018-04-29T21:10:04.280Z,13.00
2018-04-29T21:12:33.248Z,11.40
2018-04-29T21:15:01.522Z,12.07
2018-04-29T21:17:29.885Z,8.43
2018-04-29T21:19:58.058Z,11.10
2018-04-29T21:22:26.374Z,11.13
2018-04-29T21:24:54.752Z,11.80
2018-04-29T21:27:23.398Z,14.07
2018-04-29T21:29:51.635Z,12.20
2018-04-29T21:32:20.679Z,13.47
2018-04-29T21:34:50.151Z,12.10
2018-04-29T21:37:18.526Z,13.23
2018-04-29T21:39:46.945Z,13.87
2018-04-29T21:42:15.250Z,10.53
2018-04-29T21:44:43.463Z,13.93
2018-04-29T21:47:11.783Z,10.67
2018-04-29T21:49:39.985Z,13.13
2018-04-29T21:52:08.259Z,14.27
2018-04-29T21:54:36.480Z,13.23
2018-04-29T21:57:04.735Z,10.40
2018-04-29T21:59:33.751Z,14.70
2018-04-29T22:02:02.112Z,17.73
2018-04-29T22:04:31.072Z,16.03
2018-04-29T22:06:59.734Z,13.30
2018-04-29T22:09:27.963Z,12.63
2018-04-29T22:11:58.085Z,15.73
2018-04-29T22:14:27.139Z,16.47
2018-04-29T22:16:55.535Z,13.37
2018-04-29T22:19:23.750Z,10.57
2018-04-29T22:21:52.744Z,12.53
2018-04-29T22:24:21.067Z,14.53
2018-04-29T22:26:49.351Z,13.63
2018-04-29T22:29:17.553Z,13.17
2018-04-29T22:31:46.880Z,14.73
2018-04-29T22:34:15.312Z,13.23
2018-04-29T22:36:44.342Z,12.90
2018-04-29T22:39:13.487Z,15.67
2018-04-29T22:41:41.733Z,13.73
2018-04-29T22:44:09.985Z,17.90
2018-04-29T22:46:39.216Z,16.40
2018-04-29T22:49:07.479Z,14.70
2018-04-29T22:51:35.712Z,13.43
2018-04-29T22:54:03.949Z,13.57
2018-04-29T22:56:32.167Z,13.13
2018-04-29T22:59:00.375Z,14.17
2018-04-29T23:01:28.643Z,12.03
2018-04-29T23:03:56.896Z,16.03
2018-04-29T23:06:25.052Z,13.73
2018-04-29T23:08:53.329Z,12.83
2018-04-29T23:11:21.557Z,15.67
2018-04-29T23:13:49.947Z,12.00
2018-04-29T23:16:18.272Z,13.57
2018-04-29T23:18:47.251Z,15.00
2018-04-29T23:21:15.486Z,14.20
2018-04-29T23:23:43.683Z,12.00
2018-04-29T23:26:11.982Z,13.60
2018-04-29T23:28:40.303Z,15.23
2018-04-29T23:31:08.501Z,14.27
2018-04-29T23:33:36.805Z,15.30
2018-04-29T23:36:04.991Z,13.83
2018-04-29T23:38:33.310Z,14.13
2018-04-29T23:41:01.565Z,13.93
2018-04-29T23:43:29.768Z,11.70
2018-04-29T23:48:32.612Z,10.93
2018-04-29T23:51:00.836Z,15.93
2018-04-29T23:53:29.042Z,16.77
2018-04-29T23:55:57.299Z,13.00
2018-04-29T23:58:25.494Z,13.80
